Time;durP1;ratioP1;P1;durP2;ratioP2;P2;SDS_P1;SDS_P2;PMS_P1;PMS_P2;Temp;Humidity;BMP_temperature;BMP_pressure;BME280_temperature;BME280_humidity;BME280_pressure;Samples;Min_cycle;Max_cycle;Signal;HPM_P1;HPM_P2
2022/01/19 00:00:18;;;;;;;;;12.33;12.00;;;;;-3.34;83.63;101278.47;5133709;27;8846;-68
2022/01/19 00:03:14;;;;;;;;;15.33;15.00;;;;;-3.02;82.81;101278.31;5117855;27;8965;-68
2022/01/19 00:05:42;;;;;;;;;16.67;15.00;;;;;-3.20;84.36;101289.97;5134391;27;8824;-69
2022/01/19 00:08:26;;;;;;;;;15.00;13.00;;;;;-3.33;84.90;101285.53;5121989;27;8873;-69
2022/01/19 00:11:22;;;;;;;;;9.33;9.33;;;;;-3.20;84.75;101289.97;5136832;27;9565;-68
2022/01/19 00:14:17;;;;;;;;;12.33;12.33;;;;;-3.28;85.14;101290.28;5121596;27;8967;-69
2022/01/19 00:16:58;;;;;;;;;12.67;12.00;;;;;-3.14;85.36;101292.59;5101035;28;8829;-69
2022/01/19 00:19:26;;;;;;;;;10.00;4.67;;;;;-3.15;85.22;101284.69;5116692;28;8850;-68
2022/01/19 00:22:07;;;;;;;;;12.00;12.00;;;;;-3.29;84.47;101291.31;5117551;27;8822;-68
2022/01/19 00:24:35;;;;;;;;;9.00;9.00;;;;;-3.23;84.91;101285.00;5120863;27;8918;-69
2022/01/19 00:27:08;;;;;;;;;12.00;12.00;;;;;-3.24;84.90;101297.69;5116949;27;8834;-69
2022/01/19 00:29:35;;;;;;;;;11.33;11.33;;;;;-3.15;84.29;101287.41;5098774;28;9014;-68
2022/01/19 00:32:03;;;;;;;;;6.00;6.00;;;;;-3.11;84.10;101305.66;5116479;28;8857;-68
2022/01/19 00:34:31;;;;;;;;;9.33;9.33;;;;;-3.05;84.00;101297.72;5133045;27;8846;-69
2022/01/19 00:37:27;;;;;;;;;12.67;12.33;;;;;-3.20;83.74;101308.91;5136905;27;8859;-68
2022/01/19 00:39:54;;;;;;;;;9.67;9.67;;;;;-3.21;84.26;101308.09;5119175;27;8839;-68
2022/01/19 00:42:23;;;;;;;;;12.00;12.00;;;;;-2.98;83.90;101303.88;5117959;27;8823;-68
2022/01/19 00:45:06;;;;;;;;;6.00;4.00;;;;;-3.08;83.72;101294.38;5116330;28;8854;-69
2022/01/19 00:47:35;;;;;;;;;9.33;9.33;;;;;-3.06;84.10;101290.66;5116471;28;8843;-69
2022/01/19 00:50:05;;;;;;;;;6.00;6.00;;;;;-3.03;83.46;101307.25;5123316;27;8831;-69
2022/01/19 00:52:38;;;;;;;;;6.67;6.67;;;;;-3.09;83.63;101300.84;5135253;27;8827;-68
2022/01/19 00:55:09;;;;;;;;;8.33;8.33;;;;;-3.05;83.84;101297.72;5135754;27;8862;-68
2022/01/19 00:57:38;;;;;;;;;9.00;9.00;;;;;-3.41;83.94;101305.56;5130714;27;8856;-68
2022/01/19 01:00:10;;;;;;;;;8.33;8.33;;;;;-3.14;84.05;101299.91;5116547;28;8932;-69
2022/01/19 01:02:41;;;;;;;;;14.33;9.67;;;;;-3.22;84.61;101305.56;5101662;27;9059;-68
2022/01/19 01:05:23;;;;;;;;;11.33;9.67;;;;;-3.23;84.75;101295.81;5120750;27;8847;-68
2022/01/19 01:07:51;;;;;;;;;10.67;10.67;;;;;-3.05;84.60;101292.31;5136423;27;8835;-69
2022/01/19 01:10:48;;;;;;;;;12.00;12.00;;;;;-3.00;83.84;101295.13;5136298;27;8883;-69
2022/01/19 01:16:17;;;;;;;;;12.00;12.00;;;;;-2.97;83.71;101300.13;5136574;27;8831;-68
2022/01/19 01:18:46;;;;;;;;;9.00;9.00;;;;;-3.14;84.53;101313.44;5136498;27;8823;-68
2022/01/19 01:21:14;;;;;;;;;15.00;15.00;;;;;-3.15;84.60;101312.56;5118262;27;8861;-68
2022/01/19 01:23:41;;;;;;;;;7.67;7.67;;;;;-3.03;84.56;101317.25;5108899;28;8864;-68
2022/01/19 01:26:10;;;;;;;;;10.67;10.00;;;;;-2.99;84.55;101323.84;5115638;28;9590;-68
2022/01/19 01:28:38;;;;;;;;;12.00;12.00;;;;;-2.93;84.68;101312.13;5115314;28;9681;-68
2022/01/19 01:31:09;;;;;;;;;15.33;13.67;;;;;-2.97;84.25;101336.13;5115565;28;8829;-68
2022/01/19 01:33:38;;;;;;;;;10.00;10.00;;;;;-2.89;84.06;101340.41;5116547;27;8838;-68
2022/01/19 01:36:08;;;;;;;;;15.00;15.00;;;;;-2.87;84.07;101343.72;5136002;27;8849;-68
2022/01/19 01:38:39;;;;;;;;;14.67;14.67;;;;;-2.97;84.20;101344.25;5118267;27;8835;-68
2022/01/19 01:41:12;;;;;;;;;17.00;17.00;;;;;-2.78;84.25;101344.22;5116794;27;9632;-68
2022/01/19 01:43:44;;;;;;;;;16.00;16.00;;;;;-2.75;83.88;101343.78;5130796;27;8839;-69
2022/01/19 01:46:31;;;;;;;;;26.33;21.67;;;;;-2.92;83.76;101347.09;5131290;27;8864;-69
2022/01/19 01:49:15;;;;;;;;;13.00;13.00;;;;;-2.74;83.34;101337.31;5098766;28;8860;-69
2022/01/19 01:54:28;;;;;;;;;13.67;13.00;;;;;-3.01;83.96;101355.72;5116238;27;8857;-69
2022/01/19 01:56:59;;;;;;;;;11.33;11.33;;;;;-2.93;83.82;101350.03;5097074;28;8860;-70
2022/01/19 01:59:27;;;;;;;;;12.00;12.00;;;;;-2.97;84.55;101344.25;5097378;28;8826;-70
2022/01/19 02:01:55;;;;;;;;;12.67;12.67;;;;;-2.95;84.35;101346.72;5114870;28;8851;-69
2022/01/19 02:04:25;;;;;;;;;9.67;9.00;;;;;-3.05;84.32;101351.84;5132070;27;9603;-70
2022/01/19 02:07:29;;;;;;;;;4.67;4.67;;;;;-3.16;84.69;101351.50;5126880;27;8833;-69
2022/01/19 02:09:53;;;;;;;;;10.00;10.00;;;;;-3.18;84.80;101363.63;5114765;28;8853;-69
2022/01/19 02:23:49;;;;;;;;;10.00;10.00;;;;;-3.24;85.33;101351.81;5132888;27;9006;-68
2022/01/19 02:26:28;;;;;;;;;18.67;17.33;;;;;-3.27;85.18;101359.56;5135179;27;8832;-68
2022/01/19 02:40:11;;;;;;;;;18.33;18.00;;;;;-3.09;84.21;101373.09;5114397;28;8931;-69
2022/01/19 02:51:14;;;;;;;;;12.67;12.67;;;;;-3.10;83.38;101379.56;5134667;27;8839;-70
2022/01/19 02:53:43;;;;;;;;;13.00;13.00;;;;;-3.14;83.68;101383.78;5132808;27;8851;-68
2022/01/19 02:56:18;;;;;;;;;19.00;19.00;;;;;-3.15;83.50;101390.22;5116490;27;8861;-69
2022/01/19 02:58:54;;;;;;;;;18.33;16.67;;;;;-3.17;83.45;101370.69;5114055;28;8826;-69
2022/01/19 03:09:47;;;;;;;;;14.33;14.33;;;;;-3.19;83.00;101397.13;5134414;27;8839;-69
2022/01/19 03:12:14;;;;;;;;;12.00;12.00;;;;;-3.12;83.82;101395.19;5133722;27;8912;-69
2022/01/19 03:14:43;;;;;;;;;12.00;12.00;;;;;-3.02;82.81;101400.91;5130874;27;8853;-69
2022/01/19 03:17:25;;;;;;;;;9.33;7.00;;;;;-3.02;82.66;101406.34;5133842;27;8847;-69
2022/01/19 03:19:53;;;;;;;;;13.67;13.00;;;;;-3.00;82.66;101401.50;5116279;27;8832;-70
2022/01/19 03:22:26;;;;;;;;;11.33;11.33;;;;;-2.99;82.18;101399.63;5129094;27;8856;-69
2022/01/19 03:24:54;;;;;;;;;15.00;15.00;;;;;-3.00;82.32;101396.09;5112116;28;8829;-69
2022/01/19 03:27:54;;;;;;;;;15.33;15.33;;;;;-3.03;81.63;101412.81;5113516;28;8898;-69
2022/01/19 03:30:23;;;;;;;;;12.67;12.67;;;;;-2.95;81.10;101412.50;5112445;28;8886;-68
2022/01/19 03:32:51;;;;;;;;;12.00;12.00;;;;;-3.10;81.45;101415.56;5113615;28;8852;-69
2022/01/19 03:35:32;;;;;;;;;18.67;18.67;;;;;-3.03;81.51;101414.69;5112517;28;8872;-69
2022/01/19 03:38:00;;;;;;;;;16.67;16.67;;;;;-3.01;82.13;101413.41;5113612;28;8873;-69
2022/01/19 03:40:28;;;;;;;;;20.67;20.67;;;;;-2.98;81.31;101425.69;5115490;28;8849;-69
2022/01/19 03:42:56;;;;;;;;;9.67;9.67;;;;;-3.04;81.40;101419.28;5118588;27;8948;-69
2022/01/19 03:45:33;;;;;;;;;12.67;12.67;;;;;-3.05;81.62;101424.91;5101098;28;8898;-69
2022/01/19 03:51:04;;;;;;;;;15.00;15.00;;;;;-2.95;80.48;101427.94;5062804;28;8861;-70
2022/01/19 03:53:45;;;;;;;;;13.00;13.00;;;;;-3.08;81.24;101432.41;5119689;27;8948;-69
2022/01/19 03:56:14;;;;;;;;;16.67;15.33;;;;;-3.11;82.60;101430.16;5137930;27;8842;-70
2022/01/19 03:58:43;;;;;;;;;10.00;10.00;;;;;-2.92;81.89;101443.69;5119711;27;8850;-69
2022/01/19 04:01:11;;;;;;;;;6.67;6.67;;;;;-2.92;81.88;101441.00;5138003;27;8942;-69
2022/01/19 04:04:18;;;;;;;;;10.00;10.00;;;;;-2.89;82.05;101441.41;5130123;27;8837;-68
2022/01/19 04:09:20;;;;;;;;;11.33;11.33;;;;;-2.94;81.65;101443.09;5117191;28;9570;-69
2022/01/19 04:12:15;;;;;;;;;15.67;13.00;;;;;-2.97;81.82;101438.97;5116858;28;8922;-70
2022/01/19 04:14:42;;;;;;;;;13.67;12.67;;;;;-2.91;82.32;101457.03;5132417;27;8861;-69
2022/01/19 04:17:14;;;;;;;;;9.33;9.33;;;;;-2.78;82.36;101450.66;5119522;27;8859;-70
2022/01/19 04:19:49;;;;;;;;;9.33;9.33;;;;;-2.86;81.51;101450.94;5137610;27;8835;-70
2022/01/19 04:22:20;;;;;;;;;16.00;16.00;;;;;-2.83;80.64;101456.75;5124413;27;8827;-69
2022/01/19 04:24:48;;;;;;;;;26.00;23.00;;;;;-2.76;80.85;101461.25;5137334;27;8934;-69
2022/01/19 04:30:11;;;;;;;;;31.67;30.33;;;;;-2.87;80.76;101462.81;5116279;28;9578;-69
2022/01/19 04:33:04;;;;;;;;;18.33;18.33;;;;;-2.73;81.35;101461.66;5116765;28;8829;-69
2022/01/19 04:35:44;;;;;;;;;13.67;13.67;;;;;-2.71;80.82;101469.53;5116830;28;8837;-69
2022/01/19 05:06:49;;;;;;;;;9.33;8.33;;;;;-2.76;79.67;101532.50;5124608;27;8839;-69
2022/01/19 05:15:09;;;;;;;;;7.67;7.00;;;;;-2.85;80.38;101544.63;5115740;28;8852;-69
2022/01/19 05:17:58;;;;;;;;;10.00;7.67;;;;;-2.99;80.72;101546.66;5115861;28;8841;-69
2022/01/19 05:20:26;;;;;;;;;13.00;12.00;;;;;-2.71;81.01;101557.00;5115667;28;8842;-68
2022/01/19 05:22:54;;;;;;;;;15.67;15.67;;;;;-2.68;80.66;101556.59;5119161;27;8863;-68
2022/01/19 05:25:22;;;;;;;;;16.67;15.00;;;;;-2.71;80.39;101556.19;5135508;27;8865;-68
2022/01/19 05:27:55;;;;;;;;;23.33;21.67;;;;;-2.95;80.38;101558.69;5109892;28;8860;-68
2022/01/19 05:30:23;;;;;;;;;24.00;23.67;;;;;-2.67;81.83;101563.66;5115372;28;8933;-68
2022/01/19 05:33:18;;;;;;;;;27.67;25.67;;;;;-2.89;81.35;101581.34;5130563;27;9015;-69
2022/01/19 05:36:14;;;;;;;;;30.33;25.67;;;;;-2.83;81.22;101573.16;5115053;28;8917;-70
2022/01/19 05:39:10;;;;;;;;;30.00;25.67;;;;;-2.90;80.35;101572.38;5114936;28;8829;-71
2022/01/19 05:41:38;;;;;;;;;27.00;27.00;;;;;-2.74;80.83;101573.72;5097345;28;9594;-71
2022/01/19 05:44:06;;;;;;;;;21.33;17.33;;;;;-2.87;81.33;101577.34;5115501;28;8841;-71
2022/01/19 05:46:35;;;;;;;;;21.67;21.67;;;;;-2.97;80.66;101570.78;5114992;28;8861;-71
2022/01/19 05:49:03;;;;;;;;;19.00;19.00;;;;;-2.81;81.35;101586.47;5097068;28;9582;-71
2022/01/19 05:51:32;;;;;;;;;24.67;22.67;;;;;-2.76;81.56;101577.69;5114978;28;9604;-71
2022/01/19 05:54:00;;;;;;;;;34.67;33.00;;;;;-2.78;81.12;101580.59;5115137;28;8833;-71
2022/01/19 05:56:28;;;;;;;;;30.33;26.67;;;;;-3.00;81.35;101582.84;5115176;28;8883;-71
2022/01/19 05:58:55;;;;;;;;;17.67;15.33;;;;;-2.97;80.92;101592.44;5115070;28;8835;-71
2022/01/19 06:01:23;;;;;;;;;23.33;23.33;;;;;-2.83;81.45;101585.88;5115004;28;8853;-72
2022/01/19 06:03:52;;;;;;;;;28.67;23.33;;;;;-2.91;80.59;101586.97;5114979;28;8837;-71
2022/01/19 06:06:20;;;;;;;;;28.33;24.33;;;;;-2.94;81.14;101586.56;5114772;28;8809;-74
2022/01/19 06:09:00;;;;;;;;;26.00;26.00;;;;;-2.80;81.88;101590.84;5114975;28;8909;-71
2022/01/19 06:11:28;;;;;;;;;25.00;24.00;;;;;-2.73;80.87;101594.31;5114893;28;8825;-71
2022/01/19 06:13:56;;;;;;;;;30.67;29.00;;;;;-2.97;80.41;101600.56;5114732;28;8856;-71
2022/01/19 06:16:24;;;;;;;;;16.00;16.00;;;;;-3.10;81.46;101602.28;5114794;28;8825;-71
2022/01/19 06:18:51;;;;;;;;;22.00;20.33;;;;;-3.19;81.63;101606.31;5114895;28;8821;-71
2022/01/19 06:21:19;;;;;;;;;29.00;24.00;;;;;-3.17;81.87;101600.69;5096910;28;8838;-71
2022/01/19 06:23:47;;;;;;;;;28.67;26.33;;;;;-2.99;82.18;101608.03;5114526;28;8868;-72
2022/01/19 06:26:14;;;;;;;;;29.33;26.67;;;;;-3.02;81.57;101609.31;5096775;28;8833;-72
2022/01/19 06:28:42;;;;;;;;;20.33;20.33;;;;;-3.05;81.42;101617.88;5096537;28;8841;-71
2022/01/19 06:31:11;;;;;;;;;14.67;14.67;;;;;-3.06;81.24;101618.94;5096681;28;9578;-71
2022/01/19 06:33:39;;;;;;;;;16.33;16.33;;;;;-3.01;81.87;101610.97;5114456;28;8874;-71
2022/01/19 06:36:06;;;;;;;;;16.00;16.00;;;;;-2.81;82.56;101619.78;5103773;28;8845;-70
2022/01/19 06:38:51;;;;;;;;;15.33;15.33;;;;;-2.99;80.74;101611.59;5114383;28;8829;-70
2022/01/19 06:41:19;;;;;;;;;16.00;16.00;;;;;-2.94;80.74;101613.63;5128582;27;8827;-70
2022/01/19 06:44:15;;;;;;;;;16.00;15.67;;;;;-2.63;80.59;101632.56;5132888;27;9595;-70
2022/01/19 06:47:10;;;;;;;;;15.00;12.00;;;;;-2.62;79.95;101639.63;5113807;27;8833;-70
2022/01/19 06:50:08;;;;;;;;;13.67;13.67;;;;;-2.67;79.93;101646.78;5113113;28;8852;-69
2022/01/19 06:53:04;;;;;;;;;13.67;13.67;;;;;-2.76;79.48;101637.25;5112764;28;8903;-69
2022/01/19 06:56:00;;;;;;;;;22.00;22.00;;;;;-2.86;79.68;101643.16;5112955;27;8825;-69
2022/01/19 06:58:56;;;;;;;;;13.00;13.00;;;;;-2.70;80.25;101663.44;5113075;28;9600;-69
2022/01/19 07:01:37;;;;;;;;;15.00;15.00;;;;;-2.83;80.11;101664.41;5114817;27;8869;-70
2022/01/19 07:04:33;;;;;;;;;17.33;17.33;;;;;-2.89;80.42;101660.66;5100220;27;8964;-70
2022/01/19 07:07:29;;;;;;;;;25.33;22.00;;;;;-2.72;80.33;101657.44;5099804;28;8852;-72
2022/01/19 07:10:24;;;;;;;;;22.33;20.00;;;;;-2.58;79.66;101662.53;5099320;28;8829;-71
2022/01/19 07:13:21;;;;;;;;;21.00;21.00;;;;;-2.69;79.35;101670.53;5112613;28;8826;-72
2022/01/19 07:16:17;;;;;;;;;5.33;5.33;;;;;-2.92;79.35;101662.97;5099700;28;8837;-70
2022/01/19 07:19:13;;;;;;;;;10.33;9.67;;;;;-3.00;80.49;101668.63;5116643;28;8825;-69
2022/01/19 07:21:41;;;;;;;;;18.00;16.00;;;;;-3.00;81.08;101658.63;5125968;27;8855;-69
2022/01/19 07:24:36;;;;;;;;;13.00;12.33;;;;;-3.06;80.60;101669.53;5129925;28;8879;-71
2022/01/19 07:27:04;;;;;;;;;15.67;15.67;;;;;-3.08;81.20;101667.03;5095511;28;8879;-73
2022/01/19 07:29:59;;;;;;;;;24.67;24.67;;;;;-3.09;81.02;101666.19;5112921;28;9559;-74
2022/01/19 07:32:55;;;;;;;;;20.33;20.33;;;;;-3.26;80.70;101666.91;5112369;28;8971;-74
2022/01/19 07:35:51;;;;;;;;;16.67;16.67;;;;;-3.12;81.54;101666.63;5112380;28;8842;-74
2022/01/19 07:38:46;;;;;;;;;18.00;12.33;;;;;-3.12;80.68;101663.94;5133367;27;8847;-72
2022/01/19 07:41:15;;;;;;;;;21.33;21.33;;;;;-3.18;81.18;101662.09;5134232;27;8835;-73
2022/01/19 07:44:11;;;;;;;;;9.67;9.67;;;;;-3.09;80.53;101657.25;5119321;27;8823;-73
2022/01/19 07:47:07;;;;;;;;;4.00;4.00;;;;;-3.14;80.07;101665.19;5132958;27;9012;-72
2022/01/19 07:50:04;;;;;;;;;10.00;10.00;;;;;-2.99;80.70;101670.28;5132708;27;9594;-72
2022/01/19 07:53:00;;;;;;;;;8.67;8.33;;;;;-3.00;79.84;101668.63;5133656;27;8835;-72
2022/01/19 07:55:55;;;;;;;;;0.00;0.00;;;;;-3.04;79.15;101670.13;5133040;27;8843;-73
2022/01/19 07:58:51;;;;;;;;;15.67;13.67;;;;;-3.16;79.51;101687.03;5132901;27;8831;-72
2022/01/19 08:01:47;;;;;;;;;15.33;13.33;;;;;-3.05;79.97;101682.00;5121012;27;9614;-74
2022/01/19 08:04:43;;;;;;;;;17.33;17.33;;;;;-3.21;79.63;101678.75;5118797;27;8862;-74
2022/01/19 08:07:38;;;;;;;;;17.33;17.33;;;;;-3.24;80.43;101676.47;5132801;27;8835;-73
2022/01/19 08:10:34;;;;;;;;;15.33;15.33;;;;;-3.29;80.12;101675.47;5132646;27;8819;-73
2022/01/19 08:13:30;;;;;;;;;20.33;17.33;;;;;-3.20;80.52;101669.59;5128520;28;8842;-73
2022/01/19 08:16:25;;;;;;;;;2.33;2.33;;;;;-3.22;80.69;101677.09;5113003;28;8934;-72
2022/01/19 08:18:54;;;;;;;;;19.33;19.33;;;;;-3.11;80.34;101678.28;5095633;28;8845;-73
2022/01/19 08:21:22;;;;;;;;;10.67;10.67;;;;;-3.04;80.15;101689.09;5112750;28;8914;-72
2022/01/19 08:24:18;;;;;;;;;9.67;9.67;;;;;-3.24;79.00;101683.75;5111943;28;8829;-73
2022/01/19 08:26:45;;;;;;;;;6.67;6.67;;;;;-3.28;80.22;101691.47;5113649;28;8830;-73
2022/01/19 08:29:41;;;;;;;;;6.33;6.33;;;;;-3.33;79.45;101675.06;5114957;28;8963;-72
2022/01/19 08:32:36;;;;;;;;;14.33;14.33;;;;;-3.23;80.32;101677.28;5115259;28;9543;-73
2022/01/19 08:35:32;;;;;;;;;18.67;18.00;;;;;-3.18;80.42;101674.78;5115523;28;8841;-73
2022/01/19 08:37:59;;;;;;;;;9.67;9.67;;;;;-3.30;80.12;101671.91;5116414;28;8872;-72
2022/01/19 08:40:29;;;;;;;;;29.00;21.33;;;;;-3.23;80.59;101672.72;5116405;28;8845;-75
2022/01/19 08:42:57;;;;;;;;;21.00;18.67;;;;;-3.12;80.79;101668.50;5116115;28;8925;-72
2022/01/19 08:45:25;;;;;;;;;9.33;9.33;;;;;-3.19;79.71;101675.84;5116271;28;8921;-73
2022/01/19 08:48:21;;;;;;;;;21.33;21.33;;;;;-3.11;79.35;101686.41;5115159;28;8833;-72
2022/01/19 08:50:49;;;;;;;;;14.33;13.00;;;;;-3.18;79.03;101689.13;5098358;28;8829;-73
2022/01/19 08:53:45;;;;;;;;;13.67;12.00;;;;;-3.21;78.86;101684.16;5115100;28;8925;-73
2022/01/19 08:56:40;;;;;;;;;27.33;25.00;;;;;-3.24;80.04;101679.16;5131425;27;9584;-73
2022/01/19 08:59:36;;;;;;;;;27.50;26.25;;;;;-3.08;79.51;101672.44;5134819;27;8835;-74
2022/01/19 09:02:32;;;;;;;;;11.33;11.33;;;;;-3.04;79.03;101672.84;5135558;27;8954;-74
2022/01/19 09:05:28;;;;;;;;;10.00;9.00;;;;;-3.13;78.98;101664.16;5134153;27;8819;-72
2022/01/19 09:08:23;;;;;;;;;10.00;10.00;;;;;-3.12;78.43;101665.81;5121570;27;8827;-72
2022/01/19 09:11:19;;;;;;;;;12.00;12.00;;;;;-3.08;78.00;101675.97;5114223;27;8841;-73
2022/01/19 09:14:14;;;;;;;;;12.00;12.00;;;;;-3.01;77.69;101678.63;5126397;27;8832;-72
2022/01/19 09:16:49;;;;;;;;;12.00;12.00;;;;;-2.90;78.35;101672.56;5135837;27;8831;-73
2022/01/19 09:19:31;;;;;;;;;20.00;19.00;;;;;-2.99;77.71;101681.97;5115491;28;8841;-73
2022/01/19 09:22:03;;;;;;;;;15.33;12.33;;;;;-2.91;77.67;101678.19;5097549;28;9696;-73
2022/01/19 09:24:44;;;;;;;;;11.33;11.33;;;;;-3.07;77.42;101682.19;5116568;27;8864;-73
2022/01/19 09:27:15;;;;;;;;;12.67;12.67;;;;;-3.14;77.77;101684.97;5097929;28;8837;-73
2022/01/19 09:29:45;;;;;;;;;9.33;9.33;;;;;-3.05;78.49;101690.13;5111684;27;8847;-72
2022/01/19 09:32:18;;;;;;;;;11.33;11.33;;;;;-3.01;78.28;101688.63;5135737;27;8919;-73
2022/01/19 09:34:58;;;;;;;;;11.33;11.33;;;;;-3.03;78.56;101679.91;5134048;27;8866;-71
2022/01/19 09:37:53;;;;;;;;;11.33;11.33;;;;;-2.91;77.91;101686.31;5130661;27;8840;-70
2022/01/19 09:40:52;;;;;;;;;15.33;14.33;;;;;-2.75;77.31;101684.97;5119746;27;8833;-70
2022/01/19 09:43:23;;;;;;;;;16.67;16.67;;;;;-2.76;76.94;101685.97;5096882;28;8895;-70
2022/01/19 09:46:19;;;;;;;;;17.33;16.00;;;;;-2.74;76.63;101700.16;5116441;27;8829;-70
2022/01/19 09:48:47;;;;;;;;;10.67;9.67;;;;;-2.71;76.49;101697.00;5115049;28;8865;-70
2022/01/19 09:51:14;;;;;;;;;9.00;9.00;;;;;-2.67;76.90;101692.81;5115029;28;8849;-70
2022/01/19 09:53:56;;;;;;;;;12.00;10.67;;;;;-2.73;74.88;101701.81;5117552;27;8843;-70
2022/01/19 09:56:54;;;;;;;;;9.33;9.33;;;;;-2.69;75.81;101697.59;5132810;27;8846;-70
2022/01/19 09:59:49;;;;;;;;;16.67;16.67;;;;;-2.69;75.53;101701.13;5129854;27;8844;-70
2022/01/19 10:03:14;;;;;;;;;13.67;13.67;;;;;-2.63;74.26;101705.69;5113824;28;8825;-71
2022/01/19 10:06:03;;;;;;;;;9.33;9.33;;;;;-2.86;74.19;101705.41;5125845;27;8823;-71
2022/01/19 10:08:47;;;;;;;;;18.33;18.33;;;;;-2.77;74.38;101695.16;5119448;27;9596;-71
2022/01/19 10:17:02;;;;;;;;;7.00;7.00;;;;;-2.73;74.51;101708.06;5135329;27;8819;-71
2022/01/19 10:19:34;;;;;;;;;3.33;3.00;;;;;-2.76;73.30;101702.22;5117069;27;9706;-71
2022/01/19 10:22:15;;;;;;;;;7.00;7.00;;;;;-2.77;73.29;101695.16;5135269;27;8839;-71
2022/01/19 10:24:51;;;;;;;;;4.67;4.67;;;;;-2.80;73.60;101701.84;5116720;27;8847;-71
2022/01/19 10:27:27;;;;;;;;;7.67;7.00;;;;;-2.83;73.38;101696.88;5117288;27;8946;-71
2022/01/19 10:30:08;;;;;;;;;6.00;6.00;;;;;-2.91;73.09;101700.66;5135181;27;8835;-71
2022/01/19 10:32:42;;;;;;;;;13.00;12.00;;;;;-2.74;73.62;101695.56;5134684;27;8823;-70
2022/01/19 10:35:23;;;;;;;;;12.33;10.67;;;;;-2.73;74.01;101690.97;5116375;27;9604;-71
2022/01/19 10:38:28;;;;;;;;;4.00;4.00;;;;;-2.42;73.03;101698.25;5099647;27;8839;-72
2022/01/19 10:41:02;;;;;;;;;10.00;10.00;;;;;-2.57;71.85;101690.44;5117260;27;8941;-74
2022/01/19 10:43:47;;;;;;;;;9.00;9.00;;;;;-2.49;72.54;101694.78;5116478;27;8836;-74
2022/01/19 10:46:15;;;;;;;;;4.00;4.00;;;;;-2.59;72.40;101696.09;5134964;27;9015;-74
2022/01/19 10:48:44;;;;;;;;;6.33;6.33;;;;;-2.52;72.57;101702.28;5134677;27;8942;-74
2022/01/19 10:51:20;;;;;;;;;6.67;6.67;;;;;-2.41;71.76;101705.34;5133956;27;8941;-74
2022/01/19 10:54:06;;;;;;;;;6.00;6.00;;;;;-2.58;72.20;101713.16;5116258;27;9599;-74
2022/01/19 10:56:35;;;;;;;;;10.00;10.00;;;;;-2.58;71.87;101713.16;5102484;28;8833;-74
2022/01/19 10:59:31;;;;;;;;;7.67;7.67;;;;;-2.64;71.03;101709.44;5115209;27;8832;-74
2022/01/19 11:02:02;;;;;;;;;15.33;9.33;;;;;-2.58;72.28;101716.72;5114672;27;8847;-74
2022/01/19 11:04:32;;;;;;;;;11.33;9.33;;;;;-2.30;72.01;101713.59;5134237;27;8831;-74
2022/01/19 11:07:05;;;;;;;;;13.00;10.00;;;;;-2.30;71.94;101713.59;5097938;27;8845;-74
2022/01/19 11:13:00;;;;;;;;;9.33;7.00;;;;;-2.27;71.38;101710.44;5098571;28;8850;-73
2022/01/19 11:15:28;;;;;;;;;7.67;7.00;;;;;-2.42;70.95;101709.09;5113565;28;8838;-74
2022/01/19 11:17:55;;;;;;;;;7.67;7.67;;;;;-2.46;72.11;101702.44;5096096;28;9579;-74
2022/01/19 11:20:24;;;;;;;;;7.00;7.00;;;;;-2.27;71.72;101698.75;5112942;28;8833;-74
2022/01/19 11:23:01;;;;;;;;;10.00;10.00;;;;;-2.39;71.39;101703.22;5095419;28;8835;-74
2022/01/19 11:25:50;;;;;;;;;12.00;9.67;;;;;-2.37;72.50;101695.72;5113245;28;8853;-73
2022/01/19 11:28:33;;;;;;;;;9.00;7.67;;;;;-2.41;71.97;101697.22;5095642;28;8887;-74
2022/01/19 11:31:14;;;;;;;;;6.33;6.33;;;;;-2.44;71.25;101697.66;5092316;28;8831;-74
2022/01/19 11:33:56;;;;;;;;;7.00;7.00;;;;;-2.59;71.80;101700.69;5093788;28;8849;-73
2022/01/19 11:36:58;;;;;;;;;6.00;6.00;;;;;-2.65;71.74;101696.97;5112612;28;8946;-75
2022/01/19 11:39:30;;;;;;;;;7.00;7.00;;;;;-2.72;71.78;101688.03;5112280;28;8841;-75
2022/01/19 11:42:00;;;;;;;;;5.67;5.00;;;;;-2.96;72.57;101692.38;5099417;28;8979;-75
2022/01/19 11:44:27;;;;;;;;;10.00;10.00;;;;;-2.85;73.67;101701.66;5106890;28;8862;-75
2022/01/19 11:47:08;;;;;;;;;9.00;9.00;;;;;-2.67;74.35;101690.13;5095887;28;8849;-74
2022/01/19 11:50:00;;;;;;;;;9.00;9.00;;;;;-2.58;75.00;101697.75;5104372;28;8836;-74
2022/01/19 11:52:39;;;;;;;;;8.33;7.00;;;;;-2.77;74.31;101708.69;5092636;28;8941;-75
2022/01/19 11:55:35;;;;;;;;;7.00;7.00;;;;;-2.89;75.91;101711.28;5091328;28;8868;-75
2022/01/19 11:58:24;;;;;;;;;8.33;8.33;;;;;-2.62;75.74;101709.22;5076334;28;8871;-74
2022/01/19 12:00:55;;;;;;;;;6.67;6.67;;;;;-2.66;75.74;101714.25;5096683;28;8874;-75
2022/01/19 12:03:24;;;;;;;;;7.33;7.33;;;;;-2.69;76.46;101709.25;5097105;28;8878;-74
2022/01/19 12:06:30;;;;;;;;;7.67;7.67;;;;;-2.76;75.91;101718.47;5101087;28;8856;-74
2022/01/19 12:09:04;;;;;;;;;8.67;6.67;;;;;-2.78;76.25;101726.00;5095931;28;8828;-73
2022/01/19 12:11:36;;;;;;;;;7.67;6.00;;;;;-2.89;76.22;101725.66;5096544;28;8833;-74
2022/01/19 12:19:43;;;;;;;;;11.67;11.33;;;;;-3.01;76.84;101732.78;5096662;28;9612;-75
2022/01/19 12:22:28;;;;;;;;;10.00;10.00;;;;;-3.12;76.00;101731.59;5106502;28;8853;-75
2022/01/19 12:25:09;;;;;;;;;8.33;8.33;;;;;-2.98;77.12;101735.06;5101544;28;8877;-74
2022/01/19 12:27:50;;;;;;;;;8.33;8.33;;;;;-3.03;76.53;101734.88;5120450;27;8874;-74
2022/01/19 12:30:18;;;;;;;;;8.00;8.00;;;;;-2.97;76.48;101727.78;5112234;27;8907;-75
2022/01/19 12:32:50;;;;;;;;;18.33;15.67;;;;;-2.98;76.90;101732.34;5118172;27;8815;-73
2022/01/19 12:35:19;;;;;;;;;10.00;10.00;;;;;-2.90;76.90;101734.00;5136109;27;8839;-74
2022/01/19 12:38:07;;;;;;;;;3.67;3.67;;;;;-2.99;76.43;101735.25;5128341;27;8862;-74
2022/01/19 12:40:40;;;;;;;;;35.00;35.00;;;;;-3.12;76.56;101731.59;5118992;27;8870;-74
2022/01/19 12:43:32;;;;;;;;;12.00;12.00;;;;;-3.01;76.79;101740.91;5122397;27;8839;-74
2022/01/19 12:46:02;;;;;;;;;12.33;9.67;;;;;-2.82;76.75;101742.69;5114375;28;8911;-75
2022/01/19 12:48:46;;;;;;;;;8.33;8.33;;;;;-2.95;75.92;101739.22;5116547;28;8931;-74
2022/01/19 12:51:41;;;;;;;;;15.67;13.67;;;;;-2.99;76.98;101741.53;5116283;28;8871;-75
2022/01/19 12:54:27;;;;;;;;;6.67;6.67;;;;;-3.19;75.99;101746.19;5116423;28;9594;-74
2022/01/19 12:57:01;;;;;;;;;9.67;9.67;;;;;-3.12;75.92;101753.22;5116347;27;8868;-74
2022/01/19 12:59:31;;;;;;;;;4.00;4.00;;;;;-3.15;76.22;101745.53;5125129;27;8949;-75
2022/01/19 13:01:59;;;;;;;;;7.67;6.33;;;;;-3.25;77.36;101755.97;5106742;27;8835;-76
2022/01/19 13:04:42;;;;;;;;;6.00;6.00;;;;;-3.35;76.08;101747.50;5124120;27;8883;-76
2022/01/19 13:07:20;;;;;;;;;6.67;6.33;;;;;-3.35;77.14;101755.59;5112497;27;8906;-75
2022/01/19 13:15:51;;;;;;;;;6.00;6.00;;;;;-3.37;76.95;101771.22;5123841;27;9572;-74
2022/01/19 13:18:43;;;;;;;;;9.33;9.00;;;;;-3.32;78.14;101776.81;5129344;27;8853;-74
2022/01/19 13:21:21;;;;;;;;;6.00;5.33;;;;;-3.27;77.36;101771.59;5128685;27;8842;-75
2022/01/19 13:24:08;;;;;;;;;7.00;7.00;;;;;-3.20;76.66;101783.25;5126079;27;8831;-75
2022/01/19 13:26:48;;;;;;;;;9.00;8.67;;;;;-3.16;77.08;101772.81;5107333;27;8835;-74
2022/01/19 13:29:47;;;;;;;;;11.33;11.33;;;;;-3.26;77.38;101765.16;5121780;27;9631;-74
2022/01/19 13:32:29;;;;;;;;;19.67;16.00;;;;;-3.20;77.66;101764.31;5136064;27;8847;-74
2022/01/19 13:35:01;;;;;;;;;6.33;6.33;;;;;-3.04;76.56;101768.41;5128225;27;8869;-74
2022/01/19 13:37:32;;;;;;;;;12.33;12.33;;;;;-2.93;76.17;101769.59;5121128;27;8829;-74
2022/01/19 13:40:07;;;;;;;;;7.00;7.00;;;;;-3.11;76.91;101770.31;5120364;27;8899;-74
2022/01/19 13:42:38;;;;;;;;;8.33;8.33;;;;;-3.29;76.85;101764.75;5121034;27;8874;-75
2022/01/19 13:45:11;;;;;;;;;13.00;10.00;;;;;-3.16;76.35;101775.50;5121489;27;9566;-74
2022/01/19 13:50:46;;;;;;;;;7.00;6.33;;;;;-3.23;75.46;101778.25;5126439;27;8900;-75
2022/01/19 13:53:23;;;;;;;;;10.67;10.67;;;;;-2.99;75.91;101778.56;5117751;27;9578;-75
2022/01/19 13:55:50;;;;;;;;;15.33;15.33;;;;;-2.80;75.56;101775.78;5117468;27;8862;-76
2022/01/19 13:58:18;;;;;;;;;7.00;7.00;;;;;-2.89;73.53;101784.38;5135591;27;8953;-76
2022/01/19 14:00:59;;;;;;;;;10.67;10.67;;;;;-2.84;73.67;101792.66;5117353;27;8823;-75
2022/01/19 14:03:46;;;;;;;;;11.33;11.33;;;;;-2.91;73.16;101798.13;5117776;27;8840;-75
2022/01/19 14:06:33;;;;;;;;;7.00;7.00;;;;;-2.94;73.12;101803.13;5135402;27;8858;-77